sensor_id;sensor_type;location;lat;lon;timestamp;temperature;humidity
49549;DHT22;35450;44.518;7.466;2023-05-15T05:55:53;14.40;98.60
49549;DHT22;35450;44.518;7.466;2023-05-15T05:58:57;14.30;98.90
49549;DHT22;35450;44.518;7.466;2023-05-15T06:02:04;14.30;98.80
49549;DHT22;35450;44.518;7.466;2023-05-15T06:05:08;14.50;98.90
49549;DHT22;35450;44.518;7.466;2023-05-15T06:08:12;14.50;98.70
49549;DHT22;35450;44.518;7.466;2023-05-15T06:11:17;14.40;98.40
49549;DHT22;35450;44.518;7.466;2023-05-15T06:14:21;14.30;98.40
49549;DHT22;35450;44.518;7.466;2023-05-15T06:17:25;14.40;98.60
49549;DHT22;35450;44.518;7.466;2023-05-15T06:20:29;14.40;98.20
49549;DHT22;35450;44.518;7.466;2023-05-15T06:23:33;14.50;98.10
49549;DHT22;35450;44.518;7.466;2023-05-15T06:26:38;14.50;98.00
49549;DHT22;35450;44.518;7.466;2023-05-15T06:29:42;14.60;97.90
49549;DHT22;35450;44.518;7.466;2023-05-15T06:32:46;14.60;97.90
49549;DHT22;35450;44.518;7.466;2023-05-15T06:35:50;14.50;98.00
49549;DHT22;35450;44.518;7.466;2023-05-15T06:38:54;14.50;98.10
49549;DHT22;35450;44.518;7.466;2023-05-15T06:41:58;14.60;98.00
49549;DHT22;35450;44.518;7.466;2023-05-15T06:45:04;14.60;98.00
49549;DHT22;35450;44.518;7.466;2023-05-15T06:48:09;14.70;98.00
49549;DHT22;35450;44.518;7.466;2023-05-15T06:51:13;14.80;97.90
49549;DHT22;35450;44.518;7.466;2023-05-15T06:54:17;14.80;97.40
49549;DHT22;35450;44.518;7.466;2023-05-15T06:57:21;14.90;97.30
49549;DHT22;35450;44.518;7.466;2023-05-15T07:00:26;14.90;96.70
49549;DHT22;35450;44.518;7.466;2023-05-15T07:03:41;14.90;96.90
49549;DHT22;35450;44.518;7.466;2023-05-15T07:06:47;15.00;97.20
49549;DHT22;35450;44.518;7.466;2023-05-15T07:09:51;15.00;97.10
49549;DHT22;35450;44.518;7.466;2023-05-15T07:12:55;15.00;96.60
49549;DHT22;35450;44.518;7.466;2023-05-15T07:15:59;15.10;96.20
49549;DHT22;35450;44.518;7.466;2023-05-15T07:19:04;15.10;96.10
49549;DHT22;35450;44.518;7.466;2023-05-15T07:22:08;15.10;95.90
49549;DHT22;35450;44.518;7.466;2023-05-15T07:25:12;15.20;96.10
49549;DHT22;35450;44.518;7.466;2023-05-15T07:28:16;15.30;96.00
49549;DHT22;35450;44.518;7.466;2023-05-15T07:31:20;15.30;96.00
49549;DHT22;35450;44.518;7.466;2023-05-15T07:34:24;15.40;96.00
49549;DHT22;35450;44.518;7.466;2023-05-15T07:37:28;15.50;98.50
49549;DHT22;35450;44.518;7.466;2023-05-15T07:40:33;15.50;98.60
49549;DHT22;35450;44.518;7.466;2023-05-15T07:43:38;15.50;99.40
49549;DHT22;35450;44.518;7.466;2023-05-15T07:46:44;15.50;98.90
49549;DHT22;35450;44.518;7.466;2023-05-15T07:49:48;15.50;99.10
49549;DHT22;35450;44.518;7.466;2023-05-15T07:52:52;15.50;99.40
49549;DHT22;35450;44.518;7.466;2023-05-15T07:55:56;15.50;99.00
49549;DHT22;35450;44.518;7.466;2023-05-15T07:59:00;15.60;98.80
49549;DHT22;35450;44.518;7.466;2023-05-15T08:02:05;15.50;99.50
49549;DHT22;35450;44.518;7.466;2023-05-15T08:05:09;15.60;98.60
49549;DHT22;35450;44.518;7.466;2023-05-15T08:08:13;15.50;99.00
49549;DHT22;35450;44.518;7.466;2023-05-15T08:11:17;15.60;98.70
49549;DHT22;35450;44.518;7.466;2023-05-15T08:14:21;15.70;99.00
49549;DHT22;35450;44.518;7.466;2023-05-15T08:17:25;15.70;98.40
49549;DHT22;35450;44.518;7.466;2023-05-15T08:20:29;15.80;99.00
49549;DHT22;35450;44.518;7.466;2023-05-15T08:23:33;15.80;98.80
49549;DHT22;35450;44.518;7.466;2023-05-15T08:26:38;15.80;98.10
49549;DHT22;35450;44.518;7.466;2023-05-15T08:29:42;15.80;98.60
49549;DHT22;35450;44.518;7.466;2023-05-15T08:32:46;15.90;98.30
49549;DHT22;35450;44.518;7.466;2023-05-15T08:35:51;16.00;98.40
49549;DHT22;35450;44.518;7.466;2023-05-15T08:38:56;16.00;99.40
49549;DHT22;35450;44.518;7.466;2023-05-15T08:42:20;16.10;99.90
49549;DHT22;35450;44.518;7.466;2023-05-15T08:45:25;16.10;99.90
49549;DHT22;35450;44.518;7.466;2023-05-15T08:48:29;16.10;99.90
49549;DHT22;35450;44.518;7.466;2023-05-15T08:51:34;16.10;99.90
49549;DHT22;35450;44.518;7.466;2023-05-15T08:54:39;16.20;99.90
49549;DHT22;35450;44.518;7.466;2023-05-15T08:57:43;16.20;99.90
49549;DHT22;35450;44.518;7.466;2023-05-15T09:00:48;16.30;99.90
49549;DHT22;35450;44.518;7.466;2023-05-15T09:03:53;16.30;99.90
49549;DHT22;35450;44.518;7.466;2023-05-15T09:07:00;16.30;99.60
49549;DHT22;35450;44.518;7.466;2023-05-15T09:10:08;16.30;99.80
49549;DHT22;35450;44.518;7.466;2023-05-15T09:13:13;16.30;99.90
49549;DHT22;35450;44.518;7.466;2023-05-15T09:16:20;16.40;99.90
49549;DHT22;35450;44.518;7.466;2023-05-15T09:19:23;16.40;99.90
49549;DHT22;35450;44.518;7.466;2023-05-15T09:22:35;16.40;99.90
49549;DHT22;35450;44.518;7.466;2023-05-15T09:25:40;16.30;99.90
49549;DHT22;35450;44.518;7.466;2023-05-15T09:28:45;16.40;99.90
49549;DHT22;35450;44.518;7.466;2023-05-15T09:31:49;16.50;99.80
49549;DHT22;35450;44.518;7.466;2023-05-15T09:34:54;16.60;99.40
49549;DHT22;35450;44.518;7.466;2023-05-15T09:37:59;16.50;99.30
49549;DHT22;35450;44.518;7.466;2023-05-15T09:41:05;16.60;99.40
49549;DHT22;35450;44.518;7.466;2023-05-15T09:44:23;16.60;98.30
49549;DHT22;35450;44.518;7.466;2023-05-15T09:47:28;16.60;97.30
49549;DHT22;35450;44.518;7.466;2023-05-15T09:50:34;16.70;97.10
49549;DHT22;35450;44.518;7.466;2023-05-15T09:53:38;16.70;99.10
49549;DHT22;35450;44.518;7.466;2023-05-15T09:56:46;16.80;99.00
49549;DHT22;35450;44.518;7.466;2023-05-15T09:59:51;16.80;95.70
49549;DHT22;35450;44.518;7.466;2023-05-15T10:02:57;16.90;95.30
49549;DHT22;35450;44.518;7.466;2023-05-15T10:06:02;17.00;98.40
49549;DHT22;35450;44.518;7.466;2023-05-15T10:09:08;17.00;98.60
49549;DHT22;35450;44.518;7.466;2023-05-15T10:12:13;17.10;97.50
49549;DHT22;35450;44.518;7.466;2023-05-15T10:15:18;17.10;96.70
49549;DHT22;35450;44.518;7.466;2023-05-15T10:18:24;17.10;96.30
49549;DHT22;35450;44.518;7.466;2023-05-15T10:21:32;17.20;95.80
49549;DHT22;35450;44.518;7.466;2023-05-15T10:24:37;17.30;96.00
49549;DHT22;35450;44.518;7.466;2023-05-15T10:27:42;17.40;95.20
49549;DHT22;35450;44.518;7.466;2023-05-15T10:30:47;17.50;95.00
49549;DHT22;35450;44.518;7.466;2023-05-15T10:33:53;17.50;94.80
49549;DHT22;35450;44.518;7.466;2023-05-15T10:36:58;17.60;94.70
49549;DHT22;35450;44.518;7.466;2023-05-15T10:40:06;17.70;94.00
49549;DHT22;35450;44.518;7.466;2023-05-15T10:43:13;17.70;93.60
49549;DHT22;35450;44.518;7.466;2023-05-15T10:46:17;17.80;92.90
49549;DHT22;35450;44.518;7.466;2023-05-15T10:49:22;17.90;93.30
49549;DHT22;35450;44.518;7.466;2023-05-15T10:52:26;18.00;94.10
49549;DHT22;35450;44.518;7.466;2023-05-15T10:55:30;18.00;92.80
49549;DHT22;35450;44.518;7.466;2023-05-15T10:58:34;18.10;92.90
49549;DHT22;35450;44.518;7.466;2023-05-15T11:01:39;18.10;92.60
49549;DHT22;35450;44.518;7.466;2023-05-15T11:04:43;18.10;92.40
49549;DHT22;35450;44.518;7.466;2023-05-15T11:18:07;18.20;92.10
49549;DHT22;35450;44.518;7.466;2023-05-15T11:21:11;18.20;90.40
49549;DHT22;35450;44.518;7.466;2023-05-15T11:24:15;18.20;91.10
49549;DHT22;35450;44.518;7.466;2023-05-15T11:27:25;18.20;90.20
49549;DHT22;35450;44.518;7.466;2023-05-15T11:30:39;18.30;90.70
49549;DHT22;35450;44.518;7.466;2023-05-15T11:33:49;18.40;89.40
49549;DHT22;35450;44.518;7.466;2023-05-15T11:36:53;18.40;90.20
49549;DHT22;35450;44.518;7.466;2023-05-15T11:39:57;18.40;90.80
49549;DHT22;35450;44.518;7.466;2023-05-15T11:43:05;18.50;91.20
49549;DHT22;35450;44.518;7.466;2023-05-15T11:46:11;18.50;87.40
49549;DHT22;35450;44.518;7.466;2023-05-15T11:49:20;18.50;87.80
49549;DHT22;35450;44.518;7.466;2023-05-15T11:52:25;18.50;90.40
49549;DHT22;35450;44.518;7.466;2023-05-15T11:55:31;18.50;85.90
49549;DHT22;35450;44.518;7.466;2023-05-15T11:58:38;18.40;86.30
49549;DHT22;35450;44.518;7.466;2023-05-15T12:01:43;18.50;92.30
49549;DHT22;35450;44.518;7.466;2023-05-15T12:04:50;18.50;92.80
49549;DHT22;35450;44.518;7.466;2023-05-15T12:07:55;18.60;92.60
49549;DHT22;35450;44.518;7.466;2023-05-15T12:11:00;18.60;91.60
49549;DHT22;35450;44.518;7.466;2023-05-15T12:14:04;18.70;92.40
49549;DHT22;35450;44.518;7.466;2023-05-15T12:17:08;18.70;91.00
49549;DHT22;35450;44.518;7.466;2023-05-15T12:20:17;18.80;89.30
49549;DHT22;35450;44.518;7.466;2023-05-15T12:23:23;18.90;90.80
49549;DHT22;35450;44.518;7.466;2023-05-15T12:26:28;18.80;88.90
49549;DHT22;35450;44.518;7.466;2023-05-15T12:29:32;18.90;90.10
49549;DHT22;35450;44.518;7.466;2023-05-15T12:32:37;18.90;88.60
49549;DHT22;35450;44.518;7.466;2023-05-15T12:35:46;18.90;87.90
49549;DHT22;35450;44.518;7.466;2023-05-15T12:38:52;18.80;85.70
49549;DHT22;35450;44.518;7.466;2023-05-15T12:41:57;18.90;84.90
49549;DHT22;35450;44.518;7.466;2023-05-15T12:45:01;19.00;84.20
49549;DHT22;35450;44.518;7.466;2023-05-15T12:48:05;19.00;84.60
49549;DHT22;35450;44.518;7.466;2023-05-15T12:51:10;19.00;80.90
49549;DHT22;35450;44.518;7.466;2023-05-15T12:54:22;19.10;80.10
49549;DHT22;35450;44.518;7.466;2023-05-15T12:57:27;19.20;82.10
49549;DHT22;35450;44.518;7.466;2023-05-15T13:00:41;19.30;77.10
49549;DHT22;35450;44.518;7.466;2023-05-15T13:03:46;19.30;78.00
49549;DHT22;35450;44.518;7.466;2023-05-15T13:06:53;19.30;77.90
49549;DHT22;35450;44.518;7.466;2023-05-15T13:10:04;19.20;82.20
49549;DHT22;35450;44.518;7.466;2023-05-15T13:13:09;19.10;83.40
49549;DHT22;35450;44.518;7.466;2023-05-15T13:16:35;19.10;83.20
49549;DHT22;35450;44.518;7.466;2023-05-15T13:19:39;19.10;84.80
49549;DHT22;35450;44.518;7.466;2023-05-15T13:22:43;19.10;84.10
49549;DHT22;35450;44.518;7.466;2023-05-15T13:26:20;19.10;83.10
49549;DHT22;35450;44.518;7.466;2023-05-15T13:29:24;19.10;86.30
49549;DHT22;35450;44.518;7.466;2023-05-15T13:32:28;19.30;87.60
49549;DHT22;35450;44.518;7.466;2023-05-15T13:35:32;19.40;87.90
49549;DHT22;35450;44.518;7.466;2023-05-15T13:38:36;19.40;86.20
49549;DHT22;35450;44.518;7.466;2023-05-15T13:41:40;19.40;86.60
49549;DHT22;35450;44.518;7.466;2023-05-15T13:44:44;19.50;86.50
49549;DHT22;35450;44.518;7.466;2023-05-15T13:47:49;19.50;86.00
49549;DHT22;35450;44.518;7.466;2023-05-15T13:50:53;19.50;86.10
49549;DHT22;35450;44.518;7.466;2023-05-15T13:53:57;19.50;86.00
49549;DHT22;35450;44.518;7.466;2023-05-15T13:57:01;19.40;88.00
49549;DHT22;35450;44.518;7.466;2023-05-15T14:00:09;19.40;86.40
49549;DHT22;35450;44.518;7.466;2023-05-15T14:03:16;19.40;85.30
49549;DHT22;35450;44.518;7.466;2023-05-15T14:06:21;19.40;86.00
49549;DHT22;35450;44.518;7.466;2023-05-15T14:09:24;19.40;86.20
49549;DHT22;35450;44.518;7.466;2023-05-15T14:12:29;19.60;82.30
49549;DHT22;35450;44.518;7.466;2023-05-15T14:15:33;19.60;80.40
49549;DHT22;35450;44.518;7.466;2023-05-15T14:18:37;19.80;81.50
49549;DHT22;35450;44.518;7.466;2023-05-15T14:21:41;19.90;78.40
49549;DHT22;35450;44.518;7.466;2023-05-15T14:24:45;20.00;76.60
49549;DHT22;35450;44.518;7.466;2023-05-15T14:27:49;20.10;78.70
49549;DHT22;35450;44.518;7.466;2023-05-15T14:30:54;20.00;78.40
49549;DHT22;35450;44.518;7.466;2023-05-15T14:33:58;20.00;76.30
49549;DHT22;35450;44.518;7.466;2023-05-15T14:37:02;19.90;76.40
49549;DHT22;35450;44.518;7.466;2023-05-15T14:40:06;19.90;76.10
49549;DHT22;35450;44.518;7.466;2023-05-15T14:43:10;19.90;76.70
49549;DHT22;35450;44.518;7.466;2023-05-15T14:46:15;19.90;76.40
49549;DHT22;35450;44.518;7.466;2023-05-15T14:49:19;19.90;78.00
49549;DHT22;35450;44.518;7.466;2023-05-15T14:52:23;19.80;77.10
49549;DHT22;35450;44.518;7.466;2023-05-15T14:55:26;19.70;77.00
49549;DHT22;35450;44.518;7.466;2023-05-15T14:58:31;19.70;75.00
49549;DHT22;35450;44.518;7.466;2023-05-15T15:01:35;19.70;76.30
49549;DHT22;35450;44.518;7.466;2023-05-15T15:04:39;19.70;73.10
49549;DHT22;35450;44.518;7.466;2023-05-15T15:08:03;19.80;72.90
49549;DHT22;35450;44.518;7.466;2023-05-15T15:11:07;19.90;72.80
49549;DHT22;35450;44.518;7.466;2023-05-15T15:14:12;20.00;75.40
49549;DHT22;35450;44.518;7.466;2023-05-15T15:17:16;19.90;73.90
49549;DHT22;35450;44.518;7.466;2023-05-15T15:20:22;19.90;71.50
49549;DHT22;35450;44.518;7.466;2023-05-15T15:23:27;20.10;74.20
49549;DHT22;35450;44.518;7.466;2023-05-15T15:26:31;20.20;71.70
49549;DHT22;35450;44.518;7.466;2023-05-15T15:29:35;20.30;71.60
49549;DHT22;35450;44.518;7.466;2023-05-15T15:32:40;20.40;72.10
49549;DHT22;35450;44.518;7.466;2023-05-15T15:35:44;20.40;70.10
49549;DHT22;35450;44.518;7.466;2023-05-15T15:38:48;20.70;70.50
49549;DHT22;35450;44.518;7.466;2023-05-15T15:41:53;20.90;66.50
49549;DHT22;35450;44.518;7.466;2023-05-15T15:44:58;21.40;67.10
49549;DHT22;35450;44.518;7.466;2023-05-15T15:48:03;21.90;68.30
49549;DHT22;35450;44.518;7.466;2023-05-15T15:51:06;22.30;68.40
49549;DHT22;35450;44.518;7.466;2023-05-15T15:54:11;22.30;67.90
49549;DHT22;35450;44.518;7.466;2023-05-15T15:57:15;21.90;69.50
49549;DHT22;35450;44.518;7.466;2023-05-15T16:00:19;21.70;70.90
49549;DHT22;35450;44.518;7.466;2023-05-15T16:03:23;21.30;71.50
49549;DHT22;35450;44.518;7.466;2023-05-15T16:06:28;21.00;72.20
49549;DHT22;35450;44.518;7.466;2023-05-15T16:09:32;20.80;72.50
49549;DHT22;35450;44.518;7.466;2023-05-15T16:12:37;20.60;71.30
49549;DHT22;35450;44.518;7.466;2023-05-15T16:15:41;20.40;69.50
49549;DHT22;35450;44.518;7.466;2023-05-15T16:18:45;20.30;68.30
49549;DHT22;35450;44.518;7.466;2023-05-15T16:21:49;20.30;69.40
49549;DHT22;35450;44.518;7.466;2023-05-15T16:24:53;20.40;69.00
49549;DHT22;35450;44.518;7.466;2023-05-15T16:27:57;20.40;69.50
49549;DHT22;35450;44.518;7.466;2023-05-15T16:31:02;20.60;69.60
49549;DHT22;35450;44.518;7.466;2023-05-15T16:34:06;20.50;69.10
49549;DHT22;35450;44.518;7.466;2023-05-15T16:37:10;20.50;69.80
49549;DHT22;35450;44.518;7.466;2023-05-15T16:40:14;20.50;69.70
49549;DHT22;35450;44.518;7.466;2023-05-15T16:43:19;20.40;70.50
49549;DHT22;35450;44.518;7.466;2023-05-15T16:46:24;20.30;69.60
49549;DHT22;35450;44.518;7.466;2023-05-15T16:49:28;20.10;69.20
49549;DHT22;35450;44.518;7.466;2023-05-15T16:52:32;20.00;70.10
49549;DHT22;35450;44.518;7.466;2023-05-15T16:55:37;20.00;71.10
49549;DHT22;35450;44.518;7.466;2023-05-15T16:58:41;19.80;70.90
49549;DHT22;35450;44.518;7.466;2023-05-15T17:01:45;19.70;70.50
49549;DHT22;35450;44.518;7.466;2023-05-15T17:04:49;19.70;70.70
49549;DHT22;35450;44.518;7.466;2023-05-15T17:07:53;19.70;71.60
49549;DHT22;35450;44.518;7.466;2023-05-15T17:10:57;19.50;71.70
49549;DHT22;35450;44.518;7.466;2023-05-15T17:14:02;19.40;71.20
49549;DHT22;35450;44.518;7.466;2023-05-15T17:17:06;19.30;72.20
49549;DHT22;35450;44.518;7.466;2023-05-15T17:20:11;19.20;73.20
49549;DHT22;35450;44.518;7.466;2023-05-15T17:23:15;19.10;73.50
49549;DHT22;35450;44.518;7.466;2023-05-15T17:26:19;19.00;73.60
49549;DHT22;35450;44.518;7.466;2023-05-15T17:29:24;19.00;73.80
49549;DHT22;35450;44.518;7.466;2023-05-15T17:32:28;18.90;74.00
49549;DHT22;35450;44.518;7.466;2023-05-15T17:35:32;18.90;73.90
49549;DHT22;35450;44.518;7.466;2023-05-15T17:38:36;18.90;74.30
49549;DHT22;35450;44.518;7.466;2023-05-15T17:41:40;18.90;74.40
49549;DHT22;35450;44.518;7.466;2023-05-15T17:44:44;18.90;75.30
49549;DHT22;35450;44.518;7.466;2023-05-15T17:47:48;18.80;76.50
49549;DHT22;35450;44.518;7.466;2023-05-15T17:50:52;18.80;76.60
49549;DHT22;35450;44.518;7.466;2023-05-15T17:53:56;18.80;76.70
49549;DHT22;35450;44.518;7.466;2023-05-15T17:57:00;18.80;76.30
49549;DHT22;35450;44.518;7.466;2023-05-15T18:00:04;18.80;76.70
49549;DHT22;35450;44.518;7.466;2023-05-15T18:03:15;18.80;77.60
49549;DHT22;35450;44.518;7.466;2023-05-15T18:06:19;18.80;78.00
49549;DHT22;35450;44.518;7.466;2023-05-15T18:09:23;18.70;77.70
49549;DHT22;35450;44.518;7.466;2023-05-15T18:12:28;18.70;78.40
49549;DHT22;35450;44.518;7.466;2023-05-15T18:15:32;18.60;79.40
49549;DHT22;35450;44.518;7.466;2023-05-15T18:18:37;18.50;80.10
49549;DHT22;35450;44.518;7.466;2023-05-15T18:21:41;18.50;81.40
49549;DHT22;35450;44.518;7.466;2023-05-15T18:24:45;18.50;80.50
49549;DHT22;35450;44.518;7.466;2023-05-15T18:27:49;18.40;81.50
49549;DHT22;35450;44.518;7.466;2023-05-15T18:30:53;18.30;81.00
49549;DHT22;35450;44.518;7.466;2023-05-15T18:33:59;18.30;81.20
49549;DHT22;35450;44.518;7.466;2023-05-15T18:37:03;18.20;81.40
49549;DHT22;35450;44.518;7.466;2023-05-15T18:40:08;18.20;81.70
49549;DHT22;35450;44.518;7.466;2023-05-15T18:43:12;18.00;81.20
49549;DHT22;35450;44.518;7.466;2023-05-15T18:46:16;18.00;81.60
49549;DHT22;35450;44.518;7.466;2023-05-15T18:49:20;17.90;82.00
49549;DHT22;35450;44.518;7.466;2023-05-15T18:52:24;17.70;82.30
49549;DHT22;35450;44.518;7.466;2023-05-15T18:55:29;17.70;83.10
49549;DHT22;35450;44.518;7.466;2023-05-15T18:58:33;17.60;83.80
49549;DHT22;35450;44.518;7.466;2023-05-15T19:01:38;17.50;83.80
49549;DHT22;35450;44.518;7.466;2023-05-15T19:04:41;17.50;83.60
49549;DHT22;35450;44.518;7.466;2023-05-15T19:07:45;17.30;84.30
49549;DHT22;35450;44.518;7.466;2023-05-15T19:10:50;17.10;85.30
49549;DHT22;35450;44.518;7.466;2023-05-15T19:13:54;17.00;85.40
49549;DHT22;35450;44.518;7.466;2023-05-15T19:16:58;16.90;85.60
49549;DHT22;35450;44.518;7.466;2023-05-15T19:20:02;16.90;85.80
49549;DHT22;35450;44.518;7.466;2023-05-15T19:23:06;17.00;85.10
49549;DHT22;35450;44.518;7.466;2023-05-15T19:26:11;16.90;85.40
49549;DHT22;35450;44.518;7.466;2023-05-15T19:29:16;17.00;84.50
49549;DHT22;35450;44.518;7.466;2023-05-15T19:32:19;17.00;82.60
49549;DHT22;35450;44.518;7.466;2023-05-15T19:35:23;17.00;81.30
49549;DHT22;35450;44.518;7.466;2023-05-15T19:38:27;17.00;81.30
49549;DHT22;35450;44.518;7.466;2023-05-15T19:41:32;17.00;80.00
49549;DHT22;35450;44.518;7.466;2023-05-15T19:44:36;17.00;79.20
49549;DHT22;35450;44.518;7.466;2023-05-15T19:47:39;16.90;77.80
49549;DHT22;35450;44.518;7.466;2023-05-15T19:50:45;17.00;76.40
49549;DHT22;35450;44.518;7.466;2023-05-15T19:53:49;17.00;76.00
49549;DHT22;35450;44.518;7.466;2023-05-15T19:56:53;17.00;76.10
49549;DHT22;35450;44.518;7.466;2023-05-15T19:59:59;17.00;76.20
49549;DHT22;35450;44.518;7.466;2023-05-15T20:03:03;17.00;75.70
49549;DHT22;35450;44.518;7.466;2023-05-15T20:06:08;17.00;74.70
49549;DHT22;35450;44.518;7.466;2023-05-15T20:09:13;17.00;74.70
49549;DHT22;35450;44.518;7.466;2023-05-15T20:12:17;17.00;74.50
49549;DHT22;35450;44.518;7.466;2023-05-15T20:15:21;17.00;77.80
49549;DHT22;35450;44.518;7.466;2023-05-15T20:18:26;17.00;82.10
49549;DHT22;35450;44.518;7.466;2023-05-15T20:21:30;16.90;83.00
49549;DHT22;35450;44.518;7.466;2023-05-15T20:24:34;16.80;83.40
49549;DHT22;35450;44.518;7.466;2023-05-15T20:27:38;16.80;83.60
49549;DHT22;35450;44.518;7.466;2023-05-15T20:30:43;16.80;83.90
49549;DHT22;35450;44.518;7.466;2023-05-15T20:33:49;16.60;83.20
49549;DHT22;35450;44.518;7.466;2023-05-15T20:36:53;16.60;83.90
49549;DHT22;35450;44.518;7.466;2023-05-15T20:39:59;16.60;83.60
49549;DHT22;35450;44.518;7.466;2023-05-15T20:43:03;16.60;83.50
49549;DHT22;35450;44.518;7.466;2023-05-15T20:46:07;16.60;81.40
49549;DHT22;35450;44.518;7.466;2023-05-15T20:49:11;16.50;81.60
49549;DHT22;35450;44.518;7.466;2023-05-15T20:52:15;16.50;81.50
49549;DHT22;35450;44.518;7.466;2023-05-15T20:55:19;16.50;81.40
49549;DHT22;35450;44.518;7.466;2023-05-15T20:58:24;16.40;82.00
49549;DHT22;35450;44.518;7.466;2023-05-15T21:01:28;16.40;81.20
49549;DHT22;35450;44.518;7.466;2023-05-15T21:04:32;16.50;82.10
49549;DHT22;35450;44.518;7.466;2023-05-15T21:07:35;16.50;81.60
49549;DHT22;35450;44.518;7.466;2023-05-15T21:10:40;16.40;82.30
49549;DHT22;35450;44.518;7.466;2023-05-15T21:13:44;16.30;82.40
49549;DHT22;35450;44.518;7.466;2023-05-15T21:16:48;16.30;82.50
49549;DHT22;35450;44.518;7.466;2023-05-15T21:19:52;16.20;83.00
49549;DHT22;35450;44.518;7.466;2023-05-15T21:22:56;16.00;83.00
49549;DHT22;35450;44.518;7.466;2023-05-15T21:26:00;16.10;83.40
49549;DHT22;35450;44.518;7.466;2023-05-15T21:29:04;16.10;83.20
49549;DHT22;35450;44.518;7.466;2023-05-15T21:32:08;16.20;83.90
49549;DHT22;35450;44.518;7.466;2023-05-15T21:35:12;16.10;84.70
49549;DHT22;35450;44.518;7.466;2023-05-15T21:38:16;16.00;85.20
49549;DHT22;35450;44.518;7.466;2023-05-15T21:41:20;15.80;84.50
49549;DHT22;35450;44.518;7.466;2023-05-15T21:44:24;15.90;84.50
49549;DHT22;35450;44.518;7.466;2023-05-15T21:47:28;16.00;83.00
49549;DHT22;35450;44.518;7.466;2023-05-15T21:50:32;15.90;84.10
49549;DHT22;35450;44.518;7.466;2023-05-15T21:53:36;16.00;83.60
49549;DHT22;35450;44.518;7.466;2023-05-15T21:56:41;16.00;83.90
49549;DHT22;35450;44.518;7.466;2023-05-15T21:59:45;16.00;85.00
49549;DHT22;35450;44.518;7.466;2023-05-15T22:02:48;16.00;83.60
49549;DHT22;35450;44.518;7.466;2023-05-15T22:05:53;16.00;83.70
49549;DHT22;35450;44.518;7.466;2023-05-15T22:08:57;16.00;83.30
49549;DHT22;35450;44.518;7.466;2023-05-15T22:12:01;16.00;84.20
49549;DHT22;35450;44.518;7.466;2023-05-15T22:15:05;16.00;85.30
49549;DHT22;35450;44.518;7.466;2023-05-15T22:18:09;16.00;84.60
49549;DHT22;35450;44.518;7.466;2023-05-15T22:21:14;16.10;82.40
49549;DHT22;35450;44.518;7.466;2023-05-15T22:24:18;16.10;81.10
49549;DHT22;35450;44.518;7.466;2023-05-15T22:27:22;16.10;82.70
49549;DHT22;35450;44.518;7.466;2023-05-15T22:30:26;16.10;83.10
49549;DHT22;35450;44.518;7.466;2023-05-15T22:33:30;16.10;83.30
49549;DHT22;35450;44.518;7.466;2023-05-15T22:36:34;16.10;81.50
49549;DHT22;35450;44.518;7.466;2023-05-15T22:39:39;16.10;80.90
49549;DHT22;35450;44.518;7.466;2023-05-15T22:42:43;16.10;81.60
49549;DHT22;35450;44.518;7.466;2023-05-15T22:45:47;16.00;82.10
49549;DHT22;35450;44.518;7.466;2023-05-15T22:48:51;15.90;81.40
49549;DHT22;35450;44.518;7.466;2023-05-15T22:51:56;15.80;81.00
49549;DHT22;35450;44.518;7.466;2023-05-15T22:55:00;15.80;81.50
49549;DHT22;35450;44.518;7.466;2023-05-15T22:58:04;15.80;81.60
49549;DHT22;35450;44.518;7.466;2023-05-15T23:01:08;15.80;81.50
49549;DHT22;35450;44.518;7.466;2023-05-15T23:04:13;15.80;80.80
49549;DHT22;35450;44.518;7.466;2023-05-15T23:07:17;15.80;80.90
49549;DHT22;35450;44.518;7.466;2023-05-15T23:10:21;15.80;81.10
49549;DHT22;35450;44.518;7.466;2023-05-15T23:13:25;15.70;80.80
49549;DHT22;35450;44.518;7.466;2023-05-15T23:16:30;15.70;81.10
49549;DHT22;35450;44.518;7.466;2023-05-15T23:19:34;15.70;80.90
49549;DHT22;35450;44.518;7.466;2023-05-15T23:22:38;15.60;81.00
49549;DHT22;35450;44.518;7.466;2023-05-15T23:25:42;15.60;80.60
49549;DHT22;35450;44.518;7.466;2023-05-15T23:28:46;15.60;80.90
49549;DHT22;35450;44.518;7.466;2023-05-15T23:31:50;15.60;81.10
49549;DHT22;35450;44.518;7.466;2023-05-15T23:34:54;15.60;80.80
49549;DHT22;35450;44.518;7.466;2023-05-15T23:38:01;15.60;81.30
49549;DHT22;35450;44.518;7.466;2023-05-15T23:41:05;15.60;81.40
49549;DHT22;35450;44.518;7.466;2023-05-15T23:44:09;15.70;81.30
49549;DHT22;35450;44.518;7.466;2023-05-15T23:47:13;15.60;82.20
49549;DHT22;35450;44.518;7.466;2023-05-15T23:50:17;15.60;81.30
49549;DHT22;35450;44.518;7.466;2023-05-15T23:53:21;15.60;82.30
49549;DHT22;35450;44.518;7.466;2023-05-15T23:56:25;15.60;82.10
49549;DHT22;35450;44.518;7.466;2023-05-15T23:59:29;15.50;83.50
